sensor_id;sensor_type;location;lat;lon;timestamp;temperature;humidity
33564;DHT22;19894;48.452;11.494;2022-10-13T00:00:38;20.00;51.10
33564;DHT22;19894;48.452;11.494;2022-10-13T00:03:04;20.00;51.30
33564;DHT22;19894;48.452;11.494;2022-10-13T00:05:30;20.00;51.30
33564;DHT22;19894;48.452;11.494;2022-10-13T00:07:57;20.00;51.30
33564;DHT22;19894;48.452;11.494;2022-10-13T00:10:23;20.00;51.60
33564;DHT22;19894;48.452;11.494;2022-10-13T00:12:49;20.00;51.50
33564;DHT22;19894;48.452;11.494;2022-10-13T00:15:15;20.00;51.80
33564;DHT22;19894;48.452;11.494;2022-10-13T00:17:41;20.00;51.80
33564;DHT22;19894;48.452;11.494;2022-10-13T00:20:07;20.00;51.90
33564;DHT22;19894;48.452;11.494;2022-10-13T00:22:33;20.00;52.30
33564;DHT22;19894;48.452;11.494;2022-10-13T00:24:59;20.00;51.90
33564;DHT22;19894;48.452;11.494;2022-10-13T00:27:25;20.00;51.90
33564;DHT22;19894;48.452;11.494;2022-10-13T00:29:50;20.00;51.80
33564;DHT22;19894;48.452;11.494;2022-10-13T00:32:16;19.90;51.80
33564;DHT22;19894;48.452;11.494;2022-10-13T00:34:42;19.90;51.80
33564;DHT22;19894;48.452;11.494;2022-10-13T00:37:07;19.90;51.80
33564;DHT22;19894;48.452;11.494;2022-10-13T00:39:33;19.90;51.90
33564;DHT22;19894;48.452;11.494;2022-10-13T00:41:59;19.90;51.40
33564;DHT22;19894;48.452;11.494;2022-10-13T00:47:32;19.90;51.30
33564;DHT22;19894;48.452;11.494;2022-10-13T00:49:59;19.90;51.30
33564;DHT22;19894;48.452;11.494;2022-10-13T00:52:25;20.00;51.40
33564;DHT22;19894;48.452;11.494;2022-10-13T00:54:54;19.90;50.90
33564;DHT22;19894;48.452;11.494;2022-10-13T00:57:20;19.90;51.00
33564;DHT22;19894;48.452;11.494;2022-10-13T00:59:46;20.00;50.70
33564;DHT22;19894;48.452;11.494;2022-10-13T01:02:12;20.00;50.50
33564;DHT22;19894;48.452;11.494;2022-10-13T01:04:44;20.00;50.40
33564;DHT22;19894;48.452;11.494;2022-10-13T01:07:10;20.00;50.40
33564;DHT22;19894;48.452;11.494;2022-10-13T01:09:37;20.00;50.60
33564;DHT22;19894;48.452;11.494;2022-10-13T01:15:06;20.00;50.50
33564;DHT22;19894;48.452;11.494;2022-10-13T01:31:51;19.90;51.30
33564;DHT22;19894;48.452;11.494;2022-10-13T01:34:19;19.90;51.20
33564;DHT22;19894;48.452;11.494;2022-10-13T01:36:58;19.90;51.40
33564;DHT22;19894;48.452;11.494;2022-10-13T01:39:38;19.90;51.40
33564;DHT22;19894;48.452;11.494;2022-10-13T01:42:13;19.90;51.90
33564;DHT22;19894;48.452;11.494;2022-10-13T01:44:44;19.90;51.40
33564;DHT22;19894;48.452;11.494;2022-10-13T01:47:13;19.90;51.00
33564;DHT22;19894;48.452;11.494;2022-10-13T01:49:40;19.90;51.00
33564;DHT22;19894;48.452;11.494;2022-10-13T01:52:13;19.90;50.80
33564;DHT22;19894;48.452;11.494;2022-10-13T01:54:39;19.90;50.80
33564;DHT22;19894;48.452;11.494;2022-10-13T01:57:46;19.90;50.90
33564;DHT22;19894;48.452;11.494;2022-10-13T02:00:17;19.90;50.50
33564;DHT22;19894;48.452;11.494;2022-10-13T02:08:21;19.90;50.10
33564;DHT22;19894;48.452;11.494;2022-10-13T02:11:13;20.00;50.00
33564;DHT22;19894;48.452;11.494;2022-10-13T02:13:53;19.90;49.80
33564;DHT22;19894;48.452;11.494;2022-10-13T02:16:24;19.90;50.20
33564;DHT22;19894;48.452;11.494;2022-10-13T02:18:51;20.00;50.50
33564;DHT22;19894;48.452;11.494;2022-10-13T02:21:17;19.90;50.60
33564;DHT22;19894;48.452;11.494;2022-10-13T02:23:44;19.90;50.80
33564;DHT22;19894;48.452;11.494;2022-10-13T02:26:10;19.90;50.80
33564;DHT22;19894;48.452;11.494;2022-10-13T02:28:37;19.90;50.80
33564;DHT22;19894;48.452;11.494;2022-10-13T02:31:03;19.90;51.00
33564;DHT22;19894;48.452;11.494;2022-10-13T02:33:31;19.90;51.00
33564;DHT22;19894;48.452;11.494;2022-10-13T02:35:57;19.90;51.00
33564;DHT22;19894;48.452;11.494;2022-10-13T02:38:22;19.90;51.10
33564;DHT22;19894;48.452;11.494;2022-10-13T02:40:48;19.90;51.00
33564;DHT22;19894;48.452;11.494;2022-10-13T02:43:13;19.90;50.80
33564;DHT22;19894;48.452;11.494;2022-10-13T02:45:39;19.90;51.00
33564;DHT22;19894;48.452;11.494;2022-10-13T02:48:05;19.90;50.90
33564;DHT22;19894;48.452;11.494;2022-10-13T02:50:30;19.90;51.00
33564;DHT22;19894;48.452;11.494;2022-10-13T02:52:56;19.90;51.00
33564;DHT22;19894;48.452;11.494;2022-10-13T02:55:22;19.90;50.80
33564;DHT22;19894;48.452;11.494;2022-10-13T02:57:47;19.90;50.80
33564;DHT22;19894;48.452;11.494;2022-10-13T03:00:14;19.90;50.70
33564;DHT22;19894;48.452;11.494;2022-10-13T03:02:39;19.90;50.70
33564;DHT22;19894;48.452;11.494;2022-10-13T03:05:05;19.90;50.60
33564;DHT22;19894;48.452;11.494;2022-10-13T03:07:31;19.90;50.50
33564;DHT22;19894;48.452;11.494;2022-10-13T03:09:56;19.90;50.20
33564;DHT22;19894;48.452;11.494;2022-10-13T03:12:22;20.00;50.10
33564;DHT22;19894;48.452;11.494;2022-10-13T03:14:47;20.00;50.60
33564;DHT22;19894;48.452;11.494;2022-10-13T03:17:13;19.90;50.00
33564;DHT22;19894;48.452;11.494;2022-10-13T03:19:39;20.00;50.00
33564;DHT22;19894;48.452;11.494;2022-10-13T03:22:04;20.00;50.00
33564;DHT22;19894;48.452;11.494;2022-10-13T03:24:30;20.00;50.10
33564;DHT22;19894;48.452;11.494;2022-10-13T03:26:56;20.00;50.30
33564;DHT22;19894;48.452;11.494;2022-10-13T03:29:21;19.90;50.50
33564;DHT22;19894;48.452;11.494;2022-10-13T03:31:47;20.00;50.70
33564;DHT22;19894;48.452;11.494;2022-10-13T03:34:15;20.00;50.70
33564;DHT22;19894;48.452;11.494;2022-10-13T03:36:41;20.00;50.60
33564;DHT22;19894;48.452;11.494;2022-10-13T03:39:06;19.90;50.60
33564;DHT22;19894;48.452;11.494;2022-10-13T03:41:32;19.90;50.80
33564;DHT22;19894;48.452;11.494;2022-10-13T03:43:58;19.90;50.80
33564;DHT22;19894;48.452;11.494;2022-10-13T03:46:26;19.90;50.90
33564;DHT22;19894;48.452;11.494;2022-10-13T03:48:52;19.90;50.90
33564;DHT22;19894;48.452;11.494;2022-10-13T03:51:19;19.90;50.90
33564;DHT22;19894;48.452;11.494;2022-10-13T03:53:46;19.90;50.90
33564;DHT22;19894;48.452;11.494;2022-10-13T03:56:15;19.90;50.80
33564;DHT22;19894;48.452;11.494;2022-10-13T03:58:42;19.90;50.90
33564;DHT22;19894;48.452;11.494;2022-10-13T04:01:08;19.90;51.00
33564;DHT22;19894;48.452;11.494;2022-10-13T04:03:34;19.90;50.70
33564;DHT22;19894;48.452;11.494;2022-10-13T04:06:01;19.90;50.60
33564;DHT22;19894;48.452;11.494;2022-10-13T04:08:28;19.90;50.50
33564;DHT22;19894;48.452;11.494;2022-10-13T04:11:03;19.90;50.50
33564;DHT22;19894;48.452;11.494;2022-10-13T04:13:30;19.90;50.40
33564;DHT22;19894;48.452;11.494;2022-10-13T04:16:04;19.90;50.10
33564;DHT22;19894;48.452;11.494;2022-10-13T04:18:30;19.90;50.00
33564;DHT22;19894;48.452;11.494;2022-10-13T04:20:55;19.90;50.10
33564;DHT22;19894;48.452;11.494;2022-10-13T04:23:21;20.00;50.10
33564;DHT22;19894;48.452;11.494;2022-10-13T04:25:47;20.00;50.10
33564;DHT22;19894;48.452;11.494;2022-10-13T04:28:13;20.00;50.10
33564;DHT22;19894;48.452;11.494;2022-10-13T04:30:38;20.00;50.20
33564;DHT22;19894;48.452;11.494;2022-10-13T04:33:04;19.90;50.30
33564;DHT22;19894;48.452;11.494;2022-10-13T04:35:30;20.00;50.40
33564;DHT22;19894;48.452;11.494;2022-10-13T04:37:56;20.00;50.50
33564;DHT22;19894;48.452;11.494;2022-10-13T04:40:25;20.00;50.40
33564;DHT22;19894;48.452;11.494;2022-10-13T04:42:50;19.90;50.60
33564;DHT22;19894;48.452;11.494;2022-10-13T04:45:16;19.90;50.60
33564;DHT22;19894;48.452;11.494;2022-10-13T04:47:42;19.90;50.80
33564;DHT22;19894;48.452;11.494;2022-10-13T04:50:08;19.90;50.90
33564;DHT22;19894;48.452;11.494;2022-10-13T04:52:35;19.90;50.90
33564;DHT22;19894;48.452;11.494;2022-10-13T04:55:01;19.90;50.80
33564;DHT22;19894;48.452;11.494;2022-10-13T04:57:26;19.90;51.00
33564;DHT22;19894;48.452;11.494;2022-10-13T04:59:52;19.90;50.80
33564;DHT22;19894;48.452;11.494;2022-10-13T05:02:18;19.90;50.80
33564;DHT22;19894;48.452;11.494;2022-10-13T05:04:44;19.90;50.90
33564;DHT22;19894;48.452;11.494;2022-10-13T05:07:09;19.90;50.90
33564;DHT22;19894;48.452;11.494;2022-10-13T05:09:35;19.90;50.80
33564;DHT22;19894;48.452;11.494;2022-10-13T05:12:00;19.90;50.80
33564;DHT22;19894;48.452;11.494;2022-10-13T05:14:26;19.90;50.50
33564;DHT22;19894;48.452;11.494;2022-10-13T05:16:51;19.90;50.50
33564;DHT22;19894;48.452;11.494;2022-10-13T05:19:17;19.90;50.40
33564;DHT22;19894;48.452;11.494;2022-10-13T05:21:43;19.90;50.30
33564;DHT22;19894;48.452;11.494;2022-10-13T05:24:08;19.90;50.30
33564;DHT22;19894;48.452;11.494;2022-10-13T05:26:38;20.00;50.30
33564;DHT22;19894;48.452;11.494;2022-10-13T05:29:04;19.90;50.30
33564;DHT22;19894;48.452;11.494;2022-10-13T05:31:31;20.00;50.30
33564;DHT22;19894;48.452;11.494;2022-10-13T05:33:57;20.00;50.30
33564;DHT22;19894;48.452;11.494;2022-10-13T05:36:31;20.00;50.30
33564;DHT22;19894;48.452;11.494;2022-10-13T05:38:59;20.00;50.40
33564;DHT22;19894;48.452;11.494;2022-10-13T05:41:27;20.00;50.50
33564;DHT22;19894;48.452;11.494;2022-10-13T05:43:55;19.90;50.50
33564;DHT22;19894;48.452;11.494;2022-10-13T05:46:22;19.90;50.50
33564;DHT22;19894;48.452;11.494;2022-10-13T05:48:48;19.90;50.60
33564;DHT22;19894;48.452;11.494;2022-10-13T05:51:19;19.90;50.70
33564;DHT22;19894;48.452;11.494;2022-10-13T05:53:50;19.90;50.70
33564;DHT22;19894;48.452;11.494;2022-10-13T05:56:21;19.90;50.70
33564;DHT22;19894;48.452;11.494;2022-10-13T05:58:50;19.90;50.80
33564;DHT22;19894;48.452;11.494;2022-10-13T06:01:21;19.90;50.80
33564;DHT22;19894;48.452;11.494;2022-10-13T06:03:51;19.90;51.40
33564;DHT22;19894;48.452;11.494;2022-10-13T06:06:17;19.90;50.90
33564;DHT22;19894;48.452;11.494;2022-10-13T06:08:43;19.90;50.90
33564;DHT22;19894;48.452;11.494;2022-10-13T06:11:09;19.90;50.80
33564;DHT22;19894;48.452;11.494;2022-10-13T06:13:34;19.90;50.90
33564;DHT22;19894;48.452;11.494;2022-10-13T06:16:01;19.90;50.70
33564;DHT22;19894;48.452;11.494;2022-10-13T06:18:29;19.90;50.60
33564;DHT22;19894;48.452;11.494;2022-10-13T06:20:54;19.90;50.60
33564;DHT22;19894;48.452;11.494;2022-10-13T06:23:20;19.90;50.60
33564;DHT22;19894;48.452;11.494;2022-10-13T06:25:47;19.90;50.50
33564;DHT22;19894;48.452;11.494;2022-10-13T06:28:13;19.90;50.50
33564;DHT22;19894;48.452;11.494;2022-10-13T06:30:38;19.90;50.50
33564;DHT22;19894;48.452;11.494;2022-10-13T06:33:04;19.90;50.50
33564;DHT22;19894;48.452;11.494;2022-10-13T06:35:30;19.90;50.50
33564;DHT22;19894;48.452;11.494;2022-10-13T06:37:56;20.00;50.50
33564;DHT22;19894;48.452;11.494;2022-10-13T06:40:22;19.90;50.30
33564;DHT22;19894;48.452;11.494;2022-10-13T06:42:50;20.00;50.50
33564;DHT22;19894;48.452;11.494;2022-10-13T06:45:17;20.00;50.60
33564;DHT22;19894;48.452;11.494;2022-10-13T06:47:44;20.00;50.60
33564;DHT22;19894;48.452;11.494;2022-10-13T06:50:11;20.00;50.70
33564;DHT22;19894;48.452;11.494;2022-10-13T06:52:37;19.90;50.70
33564;DHT22;19894;48.452;11.494;2022-10-13T06:55:04;20.00;50.80
33564;DHT22;19894;48.452;11.494;2022-10-13T06:57:30;20.00;50.80
33564;DHT22;19894;48.452;11.494;2022-10-13T06:59:55;19.90;50.80
33564;DHT22;19894;48.452;11.494;2022-10-13T07:02:21;19.90;50.80
33564;DHT22;19894;48.452;11.494;2022-10-13T07:04:47;19.90;50.90
33564;DHT22;19894;48.452;11.494;2022-10-13T07:07:13;19.90;50.90
33564;DHT22;19894;48.452;11.494;2022-10-13T07:09:39;19.90;51.00
33564;DHT22;19894;48.452;11.494;2022-10-13T07:12:05;19.90;51.00
33564;DHT22;19894;48.452;11.494;2022-10-13T07:14:33;19.90;51.00
33564;DHT22;19894;48.452;11.494;2022-10-13T07:16:59;19.90;51.00
33564;DHT22;19894;48.452;11.494;2022-10-13T07:19:24;19.90;51.10
33564;DHT22;19894;48.452;11.494;2022-10-13T07:21:50;19.90;50.90
33564;DHT22;19894;48.452;11.494;2022-10-13T07:24:16;19.90;50.90
33564;DHT22;19894;48.452;11.494;2022-10-13T07:26:42;19.90;50.90
33564;DHT22;19894;48.452;11.494;2022-10-13T07:29:07;19.90;50.90
33564;DHT22;19894;48.452;11.494;2022-10-13T07:31:33;19.90;50.80
33564;DHT22;19894;48.452;11.494;2022-10-13T07:33:59;19.90;50.80
33564;DHT22;19894;48.452;11.494;2022-10-13T07:36:25;20.00;50.90
33564;DHT22;19894;48.452;11.494;2022-10-13T07:38:52;20.00;50.90
33564;DHT22;19894;48.452;11.494;2022-10-13T07:41:17;19.90;50.90
33564;DHT22;19894;48.452;11.494;2022-10-13T07:43:43;20.00;50.90
33564;DHT22;19894;48.452;11.494;2022-10-13T07:46:12;19.90;50.90
33564;DHT22;19894;48.452;11.494;2022-10-13T07:48:38;20.00;51.00
33564;DHT22;19894;48.452;11.494;2022-10-13T07:51:09;20.00;51.00
33564;DHT22;19894;48.452;11.494;2022-10-13T07:53:35;20.00;51.00
33564;DHT22;19894;48.452;11.494;2022-10-13T07:56:03;20.00;51.10
33564;DHT22;19894;48.452;11.494;2022-10-13T07:58:28;20.00;51.10
33564;DHT22;19894;48.452;11.494;2022-10-13T08:00:55;20.00;51.20
33564;DHT22;19894;48.452;11.494;2022-10-13T08:03:21;19.90;51.20
33564;DHT22;19894;48.452;11.494;2022-10-13T08:05:46;19.90;51.20
33564;DHT22;19894;48.452;11.494;2022-10-13T08:08:12;19.90;51.30
33564;DHT22;19894;48.452;11.494;2022-10-13T08:10:38;19.90;51.30
33564;DHT22;19894;48.452;11.494;2022-10-13T08:13:03;19.90;51.30
33564;DHT22;19894;48.452;11.494;2022-10-13T08:15:29;19.90;51.30
33564;DHT22;19894;48.452;11.494;2022-10-13T08:17:54;19.90;51.30
33564;DHT22;19894;48.452;11.494;2022-10-13T08:20:20;19.90;51.40
33564;DHT22;19894;48.452;11.494;2022-10-13T08:22:46;19.90;51.40
33564;DHT22;19894;48.452;11.494;2022-10-13T08:25:11;19.90;51.50
33564;DHT22;19894;48.452;11.494;2022-10-13T08:27:37;19.90;51.50
33564;DHT22;19894;48.452;11.494;2022-10-13T08:30:03;19.90;51.50
33564;DHT22;19894;48.452;11.494;2022-10-13T08:32:29;19.90;51.50
33564;DHT22;19894;48.452;11.494;2022-10-13T08:34:55;19.90;51.50
33564;DHT22;19894;48.452;11.494;2022-10-13T08:37:20;19.90;52.10
33564;DHT22;19894;48.452;11.494;2022-10-13T08:39:46;20.00;51.60
33564;DHT22;19894;48.452;11.494;2022-10-13T08:42:17;20.00;51.70
33564;DHT22;19894;48.452;11.494;2022-10-13T08:44:49;20.00;51.70
33564;DHT22;19894;48.452;11.494;2022-10-13T08:47:23;20.00;51.70
33564;DHT22;19894;48.452;11.494;2022-10-13T08:49:57;20.00;51.70
33564;DHT22;19894;48.452;11.494;2022-10-13T08:52:25;20.00;51.80
33564;DHT22;19894;48.452;11.494;2022-10-13T08:54:53;20.00;51.80
33564;DHT22;19894;48.452;11.494;2022-10-13T08:57:20;20.00;51.80
33564;DHT22;19894;48.452;11.494;2022-10-13T08:59:46;20.00;51.80
33564;DHT22;19894;48.452;11.494;2022-10-13T09:02:15;20.00;51.80
33564;DHT22;19894;48.452;11.494;2022-10-13T09:04:48;20.00;51.80
33564;DHT22;19894;48.452;11.494;2022-10-13T09:07:19;20.00;51.80
33564;DHT22;19894;48.452;11.494;2022-10-13T09:09:49;20.00;51.90
33564;DHT22;19894;48.452;11.494;2022-10-13T09:12:16;20.00;52.00
33564;DHT22;19894;48.452;11.494;2022-10-13T09:14:59;20.00;52.00
33564;DHT22;19894;48.452;11.494;2022-10-13T09:17:27;20.00;52.00
33564;DHT22;19894;48.452;11.494;2022-10-13T09:23:04;20.00;52.00
33564;DHT22;19894;48.452;11.494;2022-10-13T09:25:42;20.00;52.10
33564;DHT22;19894;48.452;11.494;2022-10-13T09:28:29;19.90;52.00
33564;DHT22;19894;48.452;11.494;2022-10-13T09:31:26;19.90;52.20
33564;DHT22;19894;48.452;11.494;2022-10-13T09:34:00;20.00;52.30
33564;DHT22;19894;48.452;11.494;2022-10-13T09:36:27;19.90;52.40
33564;DHT22;19894;48.452;11.494;2022-10-13T09:39:13;19.90;52.40
33564;DHT22;19894;48.452;11.494;2022-10-13T09:41:41;19.90;52.50
33564;DHT22;19894;48.452;11.494;2022-10-13T09:44:27;20.00;52.70
33564;DHT22;19894;48.452;11.494;2022-10-13T09:46:56;19.90;52.60
33564;DHT22;19894;48.452;11.494;2022-10-13T09:49:33;19.90;52.60
33564;DHT22;19894;48.452;11.494;2022-10-13T09:52:20;19.90;52.80
33564;DHT22;19894;48.452;11.494;2022-10-13T09:54:55;20.00;52.80
33564;DHT22;19894;48.452;11.494;2022-10-13T09:57:33;20.00;52.90
33564;DHT22;19894;48.452;11.494;2022-10-13T10:00:23;20.00;53.00
33564;DHT22;19894;48.452;11.494;2022-10-13T10:03:15;20.00;53.10
33564;DHT22;19894;48.452;11.494;2022-10-13T10:05:53;20.00;53.10
33564;DHT22;19894;48.452;11.494;2022-10-13T10:11:10;20.00;53.20
33564;DHT22;19894;48.452;11.494;2022-10-13T10:13:36;20.00;53.10
33564;DHT22;19894;48.452;11.494;2022-10-13T10:16:06;20.00;53.10
33564;DHT22;19894;48.452;11.494;2022-10-13T10:18:45;20.00;53.20
33564;DHT22;19894;48.452;11.494;2022-10-13T10:21:35;20.00;53.20
33564;DHT22;19894;48.452;11.494;2022-10-13T10:32:14;20.00;53.50
33564;DHT22;19894;48.452;11.494;2022-10-13T10:35:01;20.00;54.10
33564;DHT22;19894;48.452;11.494;2022-10-13T10:37:37;20.00;53.70
33564;DHT22;19894;48.452;11.494;2022-10-13T10:45:48;20.00;54.10
33564;DHT22;19894;48.452;11.494;2022-10-13T10:48:23;20.00;54.70
33564;DHT22;19894;48.452;11.494;2022-10-13T10:50:50;20.00;54.30
33564;DHT22;19894;48.452;11.494;2022-10-13T11:01:39;20.00;54.60
33564;DHT22;19894;48.452;11.494;2022-10-13T11:04:45;20.00;54.60
33564;DHT22;19894;48.452;11.494;2022-10-13T11:17:26;20.00;54.60
33564;DHT22;19894;48.452;11.494;2022-10-13T11:19:52;20.00;54.70
33564;DHT22;19894;48.452;11.494;2022-10-13T11:22:19;20.00;54.50
33564;DHT22;19894;48.452;11.494;2022-10-13T11:25:02;20.00;54.60
33564;DHT22;19894;48.452;11.494;2022-10-13T11:30:00;20.00;54.60
33564;DHT22;19894;48.452;11.494;2022-10-13T11:51:14;20.00;54.90
33564;DHT22;19894;48.452;11.494;2022-10-13T11:56:54;20.00;55.00
33564;DHT22;19894;48.452;11.494;2022-10-13T12:01:47;20.00;55.10
33564;DHT22;19894;48.452;11.494;2022-10-13T12:04:20;20.00;55.10
33564;DHT22;19894;48.452;11.494;2022-10-13T12:06:53;20.00;55.20
33564;DHT22;19894;48.452;11.494;2022-10-13T12:09:20;20.00;55.20
33564;DHT22;19894;48.452;11.494;2022-10-13T12:12:10;20.00;55.20
33564;DHT22;19894;48.452;11.494;2022-10-13T12:14:40;20.10;55.40
33564;DHT22;19894;48.452;11.494;2022-10-13T12:19:59;20.00;55.40
33564;DHT22;19894;48.452;11.494;2022-10-13T12:22:26;20.00;55.30
33564;DHT22;19894;48.452;11.494;2022-10-13T12:24:59;20.00;55.10
33564;DHT22;19894;48.452;11.494;2022-10-13T12:27:25;20.00;55.10
33564;DHT22;19894;48.452;11.494;2022-10-13T12:29:52;20.00;55.20
33564;DHT22;19894;48.452;11.494;2022-10-13T12:32:26;20.00;55.10
33564;DHT22;19894;48.452;11.494;2022-10-13T12:34:52;20.00;55.20
33564;DHT22;19894;48.452;11.494;2022-10-13T12:37:32;20.00;55.20
33564;DHT22;19894;48.452;11.494;2022-10-13T12:39:59;20.00;55.10
33564;DHT22;19894;48.452;11.494;2022-10-13T12:42:30;20.00;55.10
33564;DHT22;19894;48.452;11.494;2022-10-13T12:45:00;20.00;55.10
33564;DHT22;19894;48.452;11.494;2022-10-13T12:52:45;20.00;55.10
33564;DHT22;19894;48.452;11.494;2022-10-13T12:55:18;20.00;55.10
33564;DHT22;19894;48.452;11.494;2022-10-13T12:57:45;20.00;55.20
33564;DHT22;19894;48.452;11.494;2022-10-13T13:03:04;20.00;55.20
33564;DHT22;19894;48.452;11.494;2022-10-13T13:05:38;20.00;55.40
33564;DHT22;19894;48.452;11.494;2022-10-13T13:08:25;20.00;55.40
33564;DHT22;19894;48.452;11.494;2022-10-13T13:10:55;20.00;55.40
33564;DHT22;19894;48.452;11.494;2022-10-13T13:13:22;20.00;55.40
33564;DHT22;19894;48.452;11.494;2022-10-13T13:15:48;20.00;55.30
33564;DHT22;19894;48.452;11.494;2022-10-13T13:18:30;20.00;55.30
33564;DHT22;19894;48.452;11.494;2022-10-13T13:20:56;20.00;55.40
33564;DHT22;19894;48.452;11.494;2022-10-13T13:23:23;20.10;55.40
33564;DHT22;19894;48.452;11.494;2022-10-13T13:26:02;20.10;55.40
33564;DHT22;19894;48.452;11.494;2022-10-13T13:28:29;20.10;55.40
33564;DHT22;19894;48.452;11.494;2022-10-13T13:30:55;20.00;55.40
33564;DHT22;19894;48.452;11.494;2022-10-13T13:33:21;20.00;55.40
33564;DHT22;19894;48.452;11.494;2022-10-13T13:35:46;20.10;55.40
33564;DHT22;19894;48.452;11.494;2022-10-13T13:38:13;20.00;55.30
33564;DHT22;19894;48.452;11.494;2022-10-13T13:40:39;20.00;55.30
33564;DHT22;19894;48.452;11.494;2022-10-13T13:43:04;20.00;55.20
33564;DHT22;19894;48.452;11.494;2022-10-13T13:45:30;20.00;55.20
33564;DHT22;19894;48.452;11.494;2022-10-13T13:47:58;20.00;55.30
33564;DHT22;19894;48.452;11.494;2022-10-13T13:50:35;20.00;55.30
33564;DHT22;19894;48.452;11.494;2022-10-13T13:53:01;20.00;55.30
33564;DHT22;19894;48.452;11.494;2022-10-13T13:55:27;20.00;55.20
33564;DHT22;19894;48.452;11.494;2022-10-13T13:57:55;20.00;55.20
33564;DHT22;19894;48.452;11.494;2022-10-13T14:00:21;20.00;55.20
33564;DHT22;19894;48.452;11.494;2022-10-13T14:02:47;20.00;55.30
33564;DHT22;19894;48.452;11.494;2022-10-13T14:05:13;20.00;55.40
33564;DHT22;19894;48.452;11.494;2022-10-13T14:07:40;20.00;55.50
33564;DHT22;19894;48.452;11.494;2022-10-13T14:10:07;20.00;55.50
33564;DHT22;19894;48.452;11.494;2022-10-13T14:12:33;20.00;55.40
33564;DHT22;19894;48.452;11.494;2022-10-13T14:14:59;20.00;55.50
33564;DHT22;19894;48.452;11.494;2022-10-13T14:17:25;20.00;55.50
33564;DHT22;19894;48.452;11.494;2022-10-13T14:19:51;20.00;55.50
33564;DHT22;19894;48.452;11.494;2022-10-13T14:22:16;20.00;55.50
33564;DHT22;19894;48.452;11.494;2022-10-13T14:24:42;20.10;55.60
33564;DHT22;19894;48.452;11.494;2022-10-13T14:27:08;20.10;55.60
33564;DHT22;19894;48.452;11.494;2022-10-13T14:29:34;20.10;55.60
33564;DHT22;19894;48.452;11.494;2022-10-13T14:32:00;20.00;55.50
33564;DHT22;19894;48.452;11.494;2022-10-13T14:34:25;20.10;55.50
33564;DHT22;19894;48.452;11.494;2022-10-13T14:36:51;20.10;55.40
33564;DHT22;19894;48.452;11.494;2022-10-13T14:39:16;20.10;55.60
33564;DHT22;19894;48.452;11.494;2022-10-13T14:41:42;20.00;55.40
33564;DHT22;19894;48.452;11.494;2022-10-13T14:44:12;20.10;55.40
33564;DHT22;19894;48.452;11.494;2022-10-13T14:46:39;20.00;55.40
33564;DHT22;19894;48.452;11.494;2022-10-13T14:49:05;20.00;55.40
33564;DHT22;19894;48.452;11.494;2022-10-13T14:51:31;20.00;55.30
33564;DHT22;19894;48.452;11.494;2022-10-13T14:53:57;20.00;55.40
33564;DHT22;19894;48.452;11.494;2022-10-13T14:56:25;20.00;55.30
33564;DHT22;19894;48.452;11.494;2022-10-13T14:58:53;20.00;55.30
33564;DHT22;19894;48.452;11.494;2022-10-13T15:01:19;20.00;55.40
33564;DHT22;19894;48.452;11.494;2022-10-13T15:03:45;20.00;55.40
33564;DHT22;19894;48.452;11.494;2022-10-13T15:06:16;20.00;55.40
33564;DHT22;19894;48.452;11.494;2022-10-13T15:08:42;20.00;55.50
33564;DHT22;19894;48.452;11.494;2022-10-13T15:11:07;20.00;55.50
33564;DHT22;19894;48.452;11.494;2022-10-13T15:13:33;20.00;55.80
33564;DHT22;19894;48.452;11.494;2022-10-13T15:15:59;20.00;55.70
33564;DHT22;19894;48.452;11.494;2022-10-13T15:18:29;20.00;55.80
33564;DHT22;19894;48.452;11.494;2022-10-13T15:20:55;20.00;55.90
33564;DHT22;19894;48.452;11.494;2022-10-13T15:23:20;20.00;56.10
33564;DHT22;19894;48.452;11.494;2022-10-13T15:25:54;20.00;56.00
33564;DHT22;19894;48.452;11.494;2022-10-13T15:28:22;20.00;56.10
33564;DHT22;19894;48.452;11.494;2022-10-13T15:30:48;20.00;56.20
33564;DHT22;19894;48.452;11.494;2022-10-13T15:33:14;20.00;56.10
33564;DHT22;19894;48.452;11.494;2022-10-13T15:35:40;20.10;56.30
33564;DHT22;19894;48.452;11.494;2022-10-13T15:38:05;20.10;56.20
33564;DHT22;19894;48.452;11.494;2022-10-13T15:40:31;20.10;56.30
33564;DHT22;19894;48.452;11.494;2022-10-13T15:42:58;20.00;56.20
33564;DHT22;19894;48.452;11.494;2022-10-13T15:45:24;20.00;56.30
33564;DHT22;19894;48.452;11.494;2022-10-13T15:47:50;20.10;56.30
33564;DHT22;19894;48.452;11.494;2022-10-13T15:50:16;20.10;56.30
33564;DHT22;19894;48.452;11.494;2022-10-13T15:52:42;20.00;56.20
33564;DHT22;19894;48.452;11.494;2022-10-13T15:55:09;20.00;56.20
33564;DHT22;19894;48.452;11.494;2022-10-13T15:57:35;20.10;56.30
33564;DHT22;19894;48.452;11.494;2022-10-13T16:00:00;20.00;56.20
33564;DHT22;19894;48.452;11.494;2022-10-13T16:02:26;20.00;56.20
33564;DHT22;19894;48.452;11.494;2022-10-13T16:04:52;20.00;56.10
33564;DHT22;19894;48.452;11.494;2022-10-13T16:07:17;20.00;56.20
33564;DHT22;19894;48.452;11.494;2022-10-13T16:09:43;20.00;56.30
33564;DHT22;19894;48.452;11.494;2022-10-13T16:12:09;20.00;56.20
33564;DHT22;19894;48.452;11.494;2022-10-13T16:14:35;20.00;56.30
33564;DHT22;19894;48.452;11.494;2022-10-13T16:17:01;20.00;56.30
33564;DHT22;19894;48.452;11.494;2022-10-13T16:19:26;20.00;56.50
33564;DHT22;19894;48.452;11.494;2022-10-13T16:21:52;20.00;56.50
33564;DHT22;19894;48.452;11.494;2022-10-13T16:24:17;20.00;56.50
33564;DHT22;19894;48.452;11.494;2022-10-13T16:26:43;20.00;56.10
33564;DHT22;19894;48.452;11.494;2022-10-13T16:29:09;20.10;56.70
33564;DHT22;19894;48.452;11.494;2022-10-13T16:31:34;20.00;56.50
33564;DHT22;19894;48.452;11.494;2022-10-13T16:34:00;20.10;56.60
33564;DHT22;19894;48.452;11.494;2022-10-13T16:36:25;20.10;56.70
33564;DHT22;19894;48.452;11.494;2022-10-13T16:38:52;20.10;56.60
33564;DHT22;19894;48.452;11.494;2022-10-13T16:41:19;20.10;56.70
33564;DHT22;19894;48.452;11.494;2022-10-13T16:43:46;20.10;56.60
33564;DHT22;19894;48.452;11.494;2022-10-13T16:46:13;20.10;56.70
33564;DHT22;19894;48.452;11.494;2022-10-13T16:48:40;20.10;56.80
33564;DHT22;19894;48.452;11.494;2022-10-13T16:51:09;20.10;56.80
33564;DHT22;19894;48.452;11.494;2022-10-13T16:53:36;20.10;56.70
33564;DHT22;19894;48.452;11.494;2022-10-13T16:56:04;20.10;56.70
33564;DHT22;19894;48.452;11.494;2022-10-13T16:58:30;20.10;56.60
33564;DHT22;19894;48.452;11.494;2022-10-13T17:01:06;20.10;56.60
33564;DHT22;19894;48.452;11.494;2022-10-13T17:03:36;20.10;56.60